createdAt,value
2018-04-01T00:05:35.778Z,22.00
2018-04-01T00:15:45.514Z,22.00
2018-04-01T00:25:53.668Z,22.00
2018-04-01T00:36:00.131Z,22.00
2018-04-01T00:46:07.333Z,22.00
2018-04-01T00:56:14.911Z,22.00
2018-04-01T01:06:24.892Z,22.00
2018-04-01T01:16:37.838Z,22.00
2018-04-01T01:36:54.954Z,22.10
2018-04-01T01:47:01.799Z,22.10
2018-04-01T01:57:13.148Z,22.10
2018-04-01T02:07:22.328Z,22.20
2018-04-01T02:17:31.678Z,22.10
2018-04-01T02:27:42.910Z,22.20
2018-04-01T02:37:50.171Z,22.20
2018-04-01T02:47:58.383Z,22.30
2018-04-01T02:58:05.818Z,22.20
2018-04-01T03:08:20.289Z,22.30
2018-04-01T03:18:32.706Z,22.30
2018-04-01T03:28:41.203Z,22.30
2018-04-01T03:38:48.312Z,22.40
2018-04-01T03:48:57.123Z,22.40
2018-04-01T03:59:05.501Z,22.40
2018-04-01T04:09:20.531Z,22.40
2018-04-01T04:19:30.100Z,22.30
2018-04-01T04:29:37.719Z,22.30
2018-04-01T04:39:44.558Z,22.30
2018-04-01T04:49:51.193Z,22.30
2018-04-01T04:59:58.824Z,22.30
2018-04-01T05:10:10.428Z,22.30
2018-04-01T05:20:18.624Z,22.30
2018-04-01T05:30:28.105Z,22.30
2018-04-01T05:40:35.059Z,22.30
2018-04-01T05:50:43.484Z,22.40
2018-04-01T06:00:51.514Z,22.40
2018-04-01T06:11:03.420Z,22.40
2018-04-01T06:21:12.216Z,22.40
2018-04-01T06:31:23.280Z,22.40
2018-04-01T06:41:33.292Z,22.40
2018-04-01T06:51:45.663Z,22.50
2018-04-01T07:01:54.054Z,22.60
2018-04-01T07:12:10.279Z,22.70
2018-04-01T07:22:18.229Z,22.80
2018-04-01T07:32:28.232Z,22.80
2018-04-01T07:42:36.305Z,22.80
2018-04-01T08:03:28.317Z,22.80
2018-04-01T08:13:36.016Z,22.80
2018-04-01T08:33:51.166Z,22.80
2018-04-01T08:44:06.175Z,22.80
2018-04-01T09:15:06.003Z,22.80
2018-04-01T09:25:20.981Z,22.80
2018-04-01T09:35:27.919Z,22.80
2018-04-01T09:45:39.420Z,22.90
2018-04-01T09:55:53.894Z,22.90
2018-04-01T10:16:40.082Z,22.90
2018-04-01T10:58:36.362Z,23.10
2018-04-01T11:08:51.269Z,23.10
2018-04-01T11:19:01.517Z,23.10
2018-04-01T11:29:08.686Z,23.20
2018-04-01T11:39:22.064Z,23.10
2018-04-01T11:49:30.662Z,23.20
2018-04-01T11:59:39.986Z,23.30
2018-04-01T12:09:52.555Z,23.20
2018-04-01T12:20:04.420Z,23.30
2018-04-01T12:30:11.669Z,23.20
2018-04-01T12:40:25.826Z,23.20
2018-04-01T12:50:34.043Z,23.20
2018-04-01T13:10:59.319Z,23.20
2018-04-01T13:21:08.377Z,23.20
2018-04-01T14:02:40.784Z,23.20
2018-04-01T14:12:54.532Z,23.20
2018-04-01T14:23:22.208Z,23.10
2018-04-01T14:33:38.007Z,23.20
2018-04-01T14:54:04.297Z,23.20
2018-04-01T15:04:16.857Z,23.10
2018-04-01T15:14:32.493Z,23.00
2018-04-01T15:24:48.892Z,22.90
2018-04-01T15:45:36.639Z,22.90
2018-04-01T16:16:51.397Z,22.80
2018-04-01T17:19:41.752Z,22.70
2018-04-01T17:30:03.204Z,22.70
2018-04-01T19:03:47.945Z,22.60
2018-04-01T19:13:59.501Z,22.70
2018-04-01T19:24:08.779Z,22.60
2018-04-01T20:37:23.134Z,22.60
2018-04-01T21:08:38.487Z,22.60
2018-04-01T21:18:47.720Z,22.60
2018-04-01T21:39:16.233Z,22.60
